Погода Марина дель Рейна неделю

Калифорния, США

01 - 07 сентября
  • 01сентября
    Сегодня
    +18°
    +25°
    Ясно и безоблачно
    ВремяПогодаТемператураВлажностьДавлениеВетер, м/сВероятность осадков
    02:00Ясно и безоблачно+20°C78 %761 мм2.7 м/с2 %
    05:00Ясно и безоблачно+20°C80 %760 мм2.1 м/с2 %
    08:00Ясно и безоблачно+21°C75 %761 мм1.6 м/с2 %
    11:00Ясно и безоблачно+24°C59 %762 мм4.4 м/с2 %
    14:00Ясно и безоблачно+24°C55 %761 мм6.0 м/с2 %
    17:00Ясно и безоблачно+24°C57 %760 мм6.9 м/с2 %
    20:00Ясно и безоблачно+21°C66 %760 мм5.2 м/с2 %
    23:00Ясно и безоблачно+21°C68 %761 мм3.4 м/с2 %
  • 02сентября
    Среда
    +19°
    +26°
    Ясно и безоблачно
    ВремяПогодаТемператураВлажностьДавлениеВетер, м/сВероятность осадков
    02:00Ясно и безоблачно+20°C70 %761 мм1.7 м/с2 %
    05:00Ясно и безоблачно+19°C74 %761 мм1.4 м/с2 %
    08:00Ясно и безоблачно+20°C73 %761 мм1.5 м/с2 %
    11:00Ясно и безоблачно+24°C56 %762 мм3.8 м/с2 %
    14:00Ясно и безоблачно+26°C51 %761 мм5.5 м/с2 %
    17:00Ясно и безоблачно+24°C57 %760 мм6.7 м/с2 %
    20:00Ясно и безоблачно+23°C59 %759 мм5.2 м/с2 %
    23:00Ясно и безоблачно+21°C72 %760 мм3.2 м/с2 %
  • 03сентября
    Четверг
    +19°
    +26°
    Ясно и безоблачно
    ВремяПогодаТемператураВлажностьДавлениеВетер, м/сВероятность осадков
    02:00Ясно и безоблачно+20°C78 %760 мм1.6 м/с2 %
    05:00Ясно и безоблачно+20°C80 %760 мм1.7 м/с2 %
    08:00Ясно и безоблачно+21°C74 %760 мм2.2 м/с2 %
    11:00Ясно и безоблачно+25°C54 %760 мм3.8 м/с2 %
    14:00Ясно и безоблачно+26°C57 %759 мм5.7 м/с2 %
    17:00Ясно и безоблачно+24°C63 %758 мм6.8 м/с2 %
    20:00Ясно и безоблачно+22°C66 %758 мм5.7 м/с2 %
    23:00Ясно и безоблачно+21°C75 %759 мм3.3 м/с2 %
  • 04сентября
    Пятница
    +19°
    +27°
    Ясно и безоблачно
    ВремяПогодаТемператураВлажностьДавлениеВетер, м/сВероятность осадков
    02:00Практически безоблачно+20°C82 %759 мм1.6 м/с2 %
    05:00Ясно и безоблачно+20°C80 %758 мм2.0 м/с2 %
    08:00Ясно и безоблачно+21°C75 %759 мм1.6 м/с2 %
    11:00Ясно и безоблачно+25°C56 %760 мм3.7 м/с2 %
    14:00Ясно и безоблачно+27°C54 %759 мм5.9 м/с2 %
    17:00Ясно и безоблачно+25°C66 %758 мм6.4 м/с2 %
    20:00Ясно и безоблачно+22°C75 %758 мм4.3 м/с2 %
    23:00Ясно и безоблачно+21°C77 %759 мм2.4 м/с2 %
  • 05сентября
    Суббота
    +22°
    +28°
    Ясно и безоблачно
    ВремяПогодаТемператураВлажностьДавлениеВетер, м/сВероятность осадков
    02:00Ясно и безоблачно+20°C79 %759 мм1.4 м/с2 %
    05:00Ясно и безоблачно+20°C79 %759 мм1.2 м/с4 %
    08:00Ясно и безоблачно+21°C72 %760 мм0.9 м/с9 %
    11:00Ясно и безоблачно+26°C47 %760 мм3.4 м/с14 %
    14:00Ясно и безоблачно+27°C51 %759 мм5.3 м/с17 %
    17:00Ясно и безоблачно+26°C58 %758 мм6.0 м/с11 %
    20:00Ясно и безоблачно+22°C69 %758 мм4.0 м/с13 %
    23:00Ясно и безоблачно+23°C70 %759 мм2.2 м/с20 %
  • 06сентября
    Воскресенье
    +18°
    +26°
    Ясно и безоблачно
    ВремяПогодаТемператураВлажностьДавлениеВетер, м/сВероятность осадков
    05:00Ясно и безоблачно+23°C74 %759 мм1.4 м/с30 %
    11:00Ясно и безоблачно+25°C67 %760 мм3.0 м/с36 %
    17:00Ясно и безоблачно+25°C83 %758 мм4.7 м/с33 %
    23:00Ясно и безоблачно+21°C69 %759 мм2.0 м/с25 %
  • 07сентября
    Понедельник
    +17°
    +27°
    Ясно и безоблачно
    ВремяПогодаТемператураВлажностьДавлениеВетер, м/сВероятность осадков
    05:00Ясно и безоблачно+19°C80 %758 мм1.7 м/с19 %
    11:00Ясно и безоблачно+26°C53 %759 мм2.1 м/с24 %
    17:00Ясно и безоблачно+25°C50 %757 мм3.8 м/с20 %
    23:00Ясно и безоблачно+20°C75 %758 мм1.8 м/с14 %
Мы используем cookies
Соглашаюсь